sensor_id;sensor_type;location;lat;lon;timestamp;P1;durP1;ratioP1;P2;durP2;ratioP2
6342;SDS011;3204;42.698;23.298;2022-07-21T00:01:05;6.40;;;5.85;;
6342;SDS011;3204;42.698;23.298;2022-07-21T00:03:30;7.28;;;5.45;;
6342;SDS011;3204;42.698;23.298;2022-07-21T00:05:56;6.22;;;5.63;;
6342;SDS011;3204;42.698;23.298;2022-07-21T00:08:22;5.95;;;5.35;;
6342;SDS011;3204;42.698;23.298;2022-07-21T00:10:47;6.95;;;5.15;;
6342;SDS011;3204;42.698;23.298;2022-07-21T00:13:13;5.05;;;4.80;;
6342;SDS011;3204;42.698;23.298;2022-07-21T00:15:39;5.57;;;5.10;;
6342;SDS011;3204;42.698;23.298;2022-07-21T00:18:05;4.43;;;4.22;;
6342;SDS011;3204;42.698;23.298;2022-07-21T00:20:31;4.70;;;4.35;;
6342;SDS011;3204;42.698;23.298;2022-07-21T00:22:57;4.35;;;3.95;;
6342;SDS011;3204;42.698;23.298;2022-07-21T00:25:23;5.43;;;4.40;;
6342;SDS011;3204;42.698;23.298;2022-07-21T00:27:49;4.13;;;3.83;;
6342;SDS011;3204;42.698;23.298;2022-07-21T00:30:14;4.97;;;4.00;;
6342;SDS011;3204;42.698;23.298;2022-07-21T00:32:40;4.53;;;4.13;;
6342;SDS011;3204;42.698;23.298;2022-07-21T00:35:06;4.15;;;3.85;;
6342;SDS011;3204;42.698;23.298;2022-07-21T00:37:33;3.92;;;3.63;;
6342;SDS011;3204;42.698;23.298;2022-07-21T00:40:00;4.10;;;3.33;;
6342;SDS011;3204;42.698;23.298;2022-07-21T00:42:26;3.65;;;3.15;;
6342;SDS011;3204;42.698;23.298;2022-07-21T00:44:56;3.58;;;3.38;;
6342;SDS011;3204;42.698;23.298;2022-07-21T00:47:26;3.28;;;3.17;;
6342;SDS011;3204;42.698;23.298;2022-07-21T00:49:53;3.47;;;3.28;;
6342;SDS011;3204;42.698;23.298;2022-07-21T00:52:20;3.42;;;3.13;;
6342;SDS011;3204;42.698;23.298;2022-07-21T00:54:46;3.50;;;3.30;;
6342;SDS011;3204;42.698;23.298;2022-07-21T00:57:12;3.90;;;3.20;;
6342;SDS011;3204;42.698;23.298;2022-07-21T00:59:38;3.70;;;3.50;;
6342;SDS011;3204;42.698;23.298;2022-07-21T01:02:04;3.67;;;3.38;;
6342;SDS011;3204;42.698;23.298;2022-07-21T01:04:30;5.32;;;3.63;;
6342;SDS011;3204;42.698;23.298;2022-07-21T01:06:56;4.13;;;3.80;;
6342;SDS011;3204;42.698;23.298;2022-07-21T01:09:22;6.55;;;3.65;;
6342;SDS011;3204;42.698;23.298;2022-07-21T01:11:48;3.55;;;3.20;;
6342;SDS011;3204;42.698;23.298;2022-07-21T01:14:14;3.72;;;3.53;;
6342;SDS011;3204;42.698;23.298;2022-07-21T01:16:41;3.95;;;3.75;;
6342;SDS011;3204;42.698;23.298;2022-07-21T01:19:08;4.18;;;3.83;;
6342;SDS011;3204;42.698;23.298;2022-07-21T01:21:41;4.22;;;3.95;;
6342;SDS011;3204;42.698;23.298;2022-07-21T01:24:09;3.88;;;3.58;;
6342;SDS011;3204;42.698;23.298;2022-07-21T01:26:42;4.07;;;3.80;;
6342;SDS011;3204;42.698;23.298;2022-07-21T01:29:09;4.10;;;3.80;;
6342;SDS011;3204;42.698;23.298;2022-07-21T01:31:35;5.47;;;4.32;;
6342;SDS011;3204;42.698;23.298;2022-07-21T01:34:02;4.57;;;4.20;;
6342;SDS011;3204;42.698;23.298;2022-07-21T01:36:28;4.85;;;4.22;;
6342;SDS011;3204;42.698;23.298;2022-07-21T01:38:53;4.22;;;4.03;;
6342;SDS011;3204;42.698;23.298;2022-07-21T01:41:37;5.10;;;4.60;;
6342;SDS011;3204;42.698;23.298;2022-07-21T01:44:05;4.43;;;4.13;;
6342;SDS011;3204;42.698;23.298;2022-07-21T01:46:36;6.05;;;4.55;;
6342;SDS011;3204;42.698;23.298;2022-07-21T01:49:03;4.70;;;4.40;;
6342;SDS011;3204;42.698;23.298;2022-07-21T01:51:30;4.20;;;3.88;;
6342;SDS011;3204;42.698;23.298;2022-07-21T01:53:56;3.88;;;3.67;;
6342;SDS011;3204;42.698;23.298;2022-07-21T01:56:23;6.32;;;3.88;;
6342;SDS011;3204;42.698;23.298;2022-07-21T01:58:50;4.32;;;4.03;;
6342;SDS011;3204;42.698;23.298;2022-07-21T02:01:21;5.10;;;3.90;;
6342;SDS011;3204;42.698;23.298;2022-07-21T02:03:48;3.53;;;3.20;;
6342;SDS011;3204;42.698;23.298;2022-07-21T02:06:15;4.97;;;3.60;;
6342;SDS011;3204;42.698;23.298;2022-07-21T02:08:40;4.30;;;4.00;;
6342;SDS011;3204;42.698;23.298;2022-07-21T02:11:10;4.82;;;4.35;;
6342;SDS011;3204;42.698;23.298;2022-07-21T02:13:39;4.78;;;4.57;;
6342;SDS011;3204;42.698;23.298;2022-07-21T02:16:05;7.10;;;5.18;;
6342;SDS011;3204;42.698;23.298;2022-07-21T02:18:31;8.88;;;5.53;;
6342;SDS011;3204;42.698;23.298;2022-07-21T02:20:57;4.88;;;4.53;;
6342;SDS011;3204;42.698;23.298;2022-07-21T02:23:23;5.13;;;4.63;;
6342;SDS011;3204;42.698;23.298;2022-07-21T02:25:50;5.05;;;4.70;;
6342;SDS011;3204;42.698;23.298;2022-07-21T02:28:17;5.03;;;4.53;;
6342;SDS011;3204;42.698;23.298;2022-07-21T02:30:43;4.63;;;4.15;;
6342;SDS011;3204;42.698;23.298;2022-07-21T02:33:10;4.40;;;4.20;;
6342;SDS011;3204;42.698;23.298;2022-07-21T02:35:37;5.28;;;3.92;;
6342;SDS011;3204;42.698;23.298;2022-07-21T02:38:03;4.50;;;4.10;;
6342;SDS011;3204;42.698;23.298;2022-07-21T02:40:29;4.03;;;3.83;;
6342;SDS011;3204;42.698;23.298;2022-07-21T02:42:55;4.35;;;4.00;;
6342;SDS011;3204;42.698;23.298;2022-07-21T02:45:20;4.05;;;3.85;;
6342;SDS011;3204;42.698;23.298;2022-07-21T02:47:57;4.45;;;4.15;;
6342;SDS011;3204;42.698;23.298;2022-07-21T02:50:25;4.43;;;4.20;;
6342;SDS011;3204;42.698;23.298;2022-07-21T02:52:55;4.53;;;4.10;;
6342;SDS011;3204;42.698;23.298;2022-07-21T02:55:22;4.13;;;3.83;;
6342;SDS011;3204;42.698;23.298;2022-07-21T02:57:48;4.22;;;3.92;;
6342;SDS011;3204;42.698;23.298;2022-07-21T03:00:14;4.45;;;4.05;;
6342;SDS011;3204;42.698;23.298;2022-07-21T03:02:40;4.97;;;4.57;;
6342;SDS011;3204;42.698;23.298;2022-07-21T03:05:06;4.60;;;4.13;;
6342;SDS011;3204;42.698;23.298;2022-07-21T03:07:32;7.68;;;4.78;;
6342;SDS011;3204;42.698;23.298;2022-07-21T03:09:57;4.60;;;4.30;;
6342;SDS011;3204;42.698;23.298;2022-07-21T03:12:23;7.75;;;4.53;;
6342;SDS011;3204;42.698;23.298;2022-07-21T03:14:48;5.45;;;4.07;;
6342;SDS011;3204;42.698;23.298;2022-07-21T03:17:14;4.60;;;4.20;;
6342;SDS011;3204;42.698;23.298;2022-07-21T03:19:39;4.20;;;3.95;;
6342;SDS011;3204;42.698;23.298;2022-07-21T03:22:05;4.68;;;4.10;;
6342;SDS011;3204;42.698;23.298;2022-07-21T03:24:30;6.20;;;4.72;;
6342;SDS011;3204;42.698;23.298;2022-07-21T03:26:56;6.72;;;4.35;;
6342;SDS011;3204;42.698;23.298;2022-07-21T03:29:23;6.28;;;4.40;;
6342;SDS011;3204;42.698;23.298;2022-07-21T03:31:48;5.40;;;4.95;;
6342;SDS011;3204;42.698;23.298;2022-07-21T03:34:14;8.05;;;4.68;;
6342;SDS011;3204;42.698;23.298;2022-07-21T03:36:39;5.20;;;4.78;;
6342;SDS011;3204;42.698;23.298;2022-07-21T03:39:05;4.53;;;4.22;;
6342;SDS011;3204;42.698;23.298;2022-07-21T03:41:30;4.18;;;3.88;;
6342;SDS011;3204;42.698;23.298;2022-07-21T03:43:56;5.30;;;4.40;;
6342;SDS011;3204;42.698;23.298;2022-07-21T03:46:22;4.82;;;4.43;;
6342;SDS011;3204;42.698;23.298;2022-07-21T03:48:48;5.05;;;4.45;;
6342;SDS011;3204;42.698;23.298;2022-07-21T03:51:13;4.40;;;4.15;;
6342;SDS011;3204;42.698;23.298;2022-07-21T03:53:39;4.72;;;4.43;;
6342;SDS011;3204;42.698;23.298;2022-07-21T03:56:04;4.35;;;4.15;;
6342;SDS011;3204;42.698;23.298;2022-07-21T03:58:30;5.18;;;4.28;;
6342;SDS011;3204;42.698;23.298;2022-07-21T04:00:56;5.03;;;4.53;;
6342;SDS011;3204;42.698;23.298;2022-07-21T04:03:21;4.90;;;4.38;;
6342;SDS011;3204;42.698;23.298;2022-07-21T04:05:46;4.55;;;4.15;;
6342;SDS011;3204;42.698;23.298;2022-07-21T04:08:13;4.88;;;4.05;;
6342;SDS011;3204;42.698;23.298;2022-07-21T04:10:39;7.03;;;4.47;;
6342;SDS011;3204;42.698;23.298;2022-07-21T04:13:06;4.82;;;4.47;;
6342;SDS011;3204;42.698;23.298;2022-07-21T04:15:33;6.68;;;4.00;;
6342;SDS011;3204;42.698;23.298;2022-07-21T04:17:59;5.22;;;4.10;;
6342;SDS011;3204;42.698;23.298;2022-07-21T04:20:25;3.88;;;3.50;;
6342;SDS011;3204;42.698;23.298;2022-07-21T04:22:51;5.03;;;4.28;;
6342;SDS011;3204;42.698;23.298;2022-07-21T04:25:17;4.28;;;4.07;;
6342;SDS011;3204;42.698;23.298;2022-07-21T04:27:44;6.35;;;4.55;;
6342;SDS011;3204;42.698;23.298;2022-07-21T04:30:11;4.85;;;4.10;;
6342;SDS011;3204;42.698;23.298;2022-07-21T04:32:40;4.57;;;4.18;;
6342;SDS011;3204;42.698;23.298;2022-07-21T04:35:06;5.20;;;4.32;;
6342;SDS011;3204;42.698;23.298;2022-07-21T04:37:32;4.47;;;4.07;;
6342;SDS011;3204;42.698;23.298;2022-07-21T04:39:58;4.47;;;4.18;;
6342;SDS011;3204;42.698;23.298;2022-07-21T04:42:23;5.30;;;4.05;;
6342;SDS011;3204;42.698;23.298;2022-07-21T04:44:49;5.95;;;4.45;;
6342;SDS011;3204;42.698;23.298;2022-07-21T04:47:15;7.50;;;4.70;;
6342;SDS011;3204;42.698;23.298;2022-07-21T04:49:41;4.32;;;4.10;;
6342;SDS011;3204;42.698;23.298;2022-07-21T04:52:06;5.05;;;4.40;;
6342;SDS011;3204;42.698;23.298;2022-07-21T04:54:32;6.35;;;4.20;;
6342;SDS011;3204;42.698;23.298;2022-07-21T04:56:57;4.80;;;4.45;;
6342;SDS011;3204;42.698;23.298;2022-07-21T04:59:24;5.35;;;4.85;;
6342;SDS011;3204;42.698;23.298;2022-07-21T05:01:50;6.53;;;4.78;;
6342;SDS011;3204;42.698;23.298;2022-07-21T05:04:15;6.72;;;4.47;;
6342;SDS011;3204;42.698;23.298;2022-07-21T05:06:41;6.05;;;4.20;;
6342;SDS011;3204;42.698;23.298;2022-07-21T05:09:06;4.20;;;4.00;;
6342;SDS011;3204;42.698;23.298;2022-07-21T05:11:32;4.47;;;4.03;;
6342;SDS011;3204;42.698;23.298;2022-07-21T05:13:57;4.07;;;3.88;;
6342;SDS011;3204;42.698;23.298;2022-07-21T05:16:23;5.35;;;3.90;;
6342;SDS011;3204;42.698;23.298;2022-07-21T05:18:48;5.20;;;4.65;;
6342;SDS011;3204;42.698;23.298;2022-07-21T05:21:14;4.97;;;4.47;;
6342;SDS011;3204;42.698;23.298;2022-07-21T05:23:39;6.10;;;4.72;;
6342;SDS011;3204;42.698;23.298;2022-07-21T05:26:05;4.90;;;4.50;;
6342;SDS011;3204;42.698;23.298;2022-07-21T05:28:30;5.38;;;4.90;;
6342;SDS011;3204;42.698;23.298;2022-07-21T05:30:56;6.22;;;4.72;;
6342;SDS011;3204;42.698;23.298;2022-07-21T05:33:21;9.30;;;4.65;;
6342;SDS011;3204;42.698;23.298;2022-07-21T05:35:47;6.57;;;4.70;;
6342;SDS011;3204;42.698;23.298;2022-07-21T05:38:13;4.90;;;4.70;;
6342;SDS011;3204;42.698;23.298;2022-07-21T05:40:39;5.38;;;4.95;;
6342;SDS011;3204;42.698;23.298;2022-07-21T05:43:04;5.65;;;5.28;;
6342;SDS011;3204;42.698;23.298;2022-07-21T05:45:30;17.20;;;5.82;;
6342;SDS011;3204;42.698;23.298;2022-07-21T05:47:55;8.00;;;5.20;;
6342;SDS011;3204;42.698;23.298;2022-07-21T05:50:21;9.15;;;5.45;;
6342;SDS011;3204;42.698;23.298;2022-07-21T05:52:46;9.27;;;5.07;;
6342;SDS011;3204;42.698;23.298;2022-07-21T05:55:12;6.00;;;5.55;;
6342;SDS011;3204;42.698;23.298;2022-07-21T05:57:38;5.78;;;5.13;;
6342;SDS011;3204;42.698;23.298;2022-07-21T06:00:04;15.07;;;5.75;;
6342;SDS011;3204;42.698;23.298;2022-07-21T06:02:31;12.93;;;5.55;;
6342;SDS011;3204;42.698;23.298;2022-07-21T06:04:57;14.93;;;6.28;;
6342;SDS011;3204;42.698;23.298;2022-07-21T06:07:23;7.68;;;5.82;;
6342;SDS011;3204;42.698;23.298;2022-07-21T06:09:49;6.90;;;5.53;;
6342;SDS011;3204;42.698;23.298;2022-07-21T06:12:15;8.57;;;5.40;;
6342;SDS011;3204;42.698;23.298;2022-07-21T06:14:40;10.07;;;5.55;;
6342;SDS011;3204;42.698;23.298;2022-07-21T06:17:06;6.70;;;5.97;;
6342;SDS011;3204;42.698;23.298;2022-07-21T06:19:31;5.45;;;4.93;;
6342;SDS011;3204;42.698;23.298;2022-07-21T06:21:57;5.82;;;5.30;;
6342;SDS011;3204;42.698;23.298;2022-07-21T06:24:22;6.13;;;4.97;;
6342;SDS011;3204;42.698;23.298;2022-07-21T06:26:48;5.80;;;4.85;;
6342;SDS011;3204;42.698;23.298;2022-07-21T06:29:14;6.65;;;5.60;;
6342;SDS011;3204;42.698;23.298;2022-07-21T06:31:39;6.40;;;5.30;;
6342;SDS011;3204;42.698;23.298;2022-07-21T06:34:05;6.18;;;5.30;;
6342;SDS011;3204;42.698;23.298;2022-07-21T06:36:31;7.38;;;4.93;;
6342;SDS011;3204;42.698;23.298;2022-07-21T06:38:56;9.70;;;5.30;;
6342;SDS011;3204;42.698;23.298;2022-07-21T06:41:22;9.32;;;5.60;;
6342;SDS011;3204;42.698;23.298;2022-07-21T06:43:47;6.35;;;5.25;;
6342;SDS011;3204;42.698;23.298;2022-07-21T06:46:13;7.22;;;5.40;;
6342;SDS011;3204;42.698;23.298;2022-07-21T06:48:38;6.90;;;5.40;;
6342;SDS011;3204;42.698;23.298;2022-07-21T06:51:04;11.38;;;5.70;;
6342;SDS011;3204;42.698;23.298;2022-07-21T06:53:29;6.95;;;4.75;;
6342;SDS011;3204;42.698;23.298;2022-07-21T06:55:55;9.10;;;4.80;;
6342;SDS011;3204;42.698;23.298;2022-07-21T06:58:21;5.50;;;5.00;;
6342;SDS011;3204;42.698;23.298;2022-07-21T07:00:48;10.90;;;4.82;;
6342;SDS011;3204;42.698;23.298;2022-07-21T07:03:14;9.20;;;4.82;;
6342;SDS011;3204;42.698;23.298;2022-07-21T07:05:41;5.20;;;4.70;;
6342;SDS011;3204;42.698;23.298;2022-07-21T07:08:08;5.72;;;4.63;;
6342;SDS011;3204;42.698;23.298;2022-07-21T07:10:33;7.03;;;4.63;;
6342;SDS011;3204;42.698;23.298;2022-07-21T07:12:59;5.80;;;5.15;;
6342;SDS011;3204;42.698;23.298;2022-07-21T07:15:26;9.50;;;4.57;;
6342;SDS011;3204;42.698;23.298;2022-07-21T07:17:52;5.55;;;4.68;;
6342;SDS011;3204;42.698;23.298;2022-07-21T07:20:18;6.72;;;4.40;;
6342;SDS011;3204;42.698;23.298;2022-07-21T07:22:44;5.63;;;4.30;;
6342;SDS011;3204;42.698;23.298;2022-07-21T07:25:09;10.02;;;8.50;;
6342;SDS011;3204;42.698;23.298;2022-07-21T07:27:35;7.78;;;4.97;;
6342;SDS011;3204;42.698;23.298;2022-07-21T07:30:02;4.97;;;4.32;;
6342;SDS011;3204;42.698;23.298;2022-07-21T07:32:28;6.28;;;3.88;;
6342;SDS011;3204;42.698;23.298;2022-07-21T07:34:53;8.35;;;3.70;;
6342;SDS011;3204;42.698;23.298;2022-07-21T07:37:19;4.13;;;3.78;;
6342;SDS011;3204;42.698;23.298;2022-07-21T07:39:44;6.28;;;3.85;;
6342;SDS011;3204;42.698;23.298;2022-07-21T07:42:10;5.25;;;3.45;;
6342;SDS011;3204;42.698;23.298;2022-07-21T07:44:35;7.97;;;3.53;;
6342;SDS011;3204;42.698;23.298;2022-07-21T07:47:01;4.00;;;3.70;;
6342;SDS011;3204;42.698;23.298;2022-07-21T07:49:28;3.65;;;3.42;;
6342;SDS011;3204;42.698;23.298;2022-07-21T07:51:54;4.93;;;3.45;;
6342;SDS011;3204;42.698;23.298;2022-07-21T07:54:20;4.97;;;3.38;;
6342;SDS011;3204;42.698;23.298;2022-07-21T07:56:45;4.25;;;3.85;;
6342;SDS011;3204;42.698;23.298;2022-07-21T07:59:11;4.05;;;3.08;;
6342;SDS011;3204;42.698;23.298;2022-07-21T08:01:36;4.60;;;3.30;;
6342;SDS011;3204;42.698;23.298;2022-07-21T08:04:02;8.55;;;3.63;;
6342;SDS011;3204;42.698;23.298;2022-07-21T08:06:27;4.38;;;2.90;;
6342;SDS011;3204;42.698;23.298;2022-07-21T08:08:53;3.80;;;3.50;;
6342;SDS011;3204;42.698;23.298;2022-07-21T08:11:18;5.47;;;3.42;;
6342;SDS011;3204;42.698;23.298;2022-07-21T08:13:44;4.53;;;4.13;;
6342;SDS011;3204;42.698;23.298;2022-07-21T08:16:09;7.05;;;3.25;;
6342;SDS011;3204;42.698;23.298;2022-07-21T08:18:37;5.25;;;2.72;;
6342;SDS011;3204;42.698;23.298;2022-07-21T08:21:02;4.43;;;2.65;;
6342;SDS011;3204;42.698;23.298;2022-07-21T08:23:28;5.00;;;2.90;;
6342;SDS011;3204;42.698;23.298;2022-07-21T08:25:53;5.95;;;2.72;;
6342;SDS011;3204;42.698;23.298;2022-07-21T08:28:19;6.85;;;3.00;;
6342;SDS011;3204;42.698;23.298;2022-07-21T08:30:44;3.42;;;2.88;;
6342;SDS011;3204;42.698;23.298;2022-07-21T08:33:10;2.97;;;2.78;;
6342;SDS011;3204;42.698;23.298;2022-07-21T08:35:35;3.28;;;3.00;;
6342;SDS011;3204;42.698;23.298;2022-07-21T08:38:02;8.10;;;2.80;;
6342;SDS011;3204;42.698;23.298;2022-07-21T08:40:31;2.90;;;2.60;;
6342;SDS011;3204;42.698;23.298;2022-07-21T08:42:59;3.95;;;2.80;;
6342;SDS011;3204;42.698;23.298;2022-07-21T08:45:26;3.58;;;2.67;;
6342;SDS011;3204;42.698;23.298;2022-07-21T08:47:53;3.03;;;2.58;;
6342;SDS011;3204;42.698;23.298;2022-07-21T08:50:22;4.55;;;2.70;;
6342;SDS011;3204;42.698;23.298;2022-07-21T08:52:49;4.05;;;2.53;;
6342;SDS011;3204;42.698;23.298;2022-07-21T08:55:15;2.72;;;2.63;;
6342;SDS011;3204;42.698;23.298;2022-07-21T08:57:41;4.60;;;2.92;;
6342;SDS011;3204;42.698;23.298;2022-07-21T09:00:07;3.92;;;2.70;;
6342;SDS011;3204;42.698;23.298;2022-07-21T09:02:34;3.05;;;2.58;;
6342;SDS011;3204;42.698;23.298;2022-07-21T09:05:02;3.10;;;2.90;;
6342;SDS011;3204;42.698;23.298;2022-07-21T09:07:46;3.30;;;2.58;;
6342;SDS011;3204;42.698;23.298;2022-07-21T09:10:20;3.90;;;3.17;;
6342;SDS011;3204;42.698;23.298;2022-07-21T09:12:54;5.10;;;2.47;;
6342;SDS011;3204;42.698;23.298;2022-07-21T09:15:22;4.18;;;3.35;;
6342;SDS011;3204;42.698;23.298;2022-07-21T09:18:12;4.90;;;2.97;;
6342;SDS011;3204;42.698;23.298;2022-07-21T09:20:46;3.03;;;2.70;;
6342;SDS011;3204;42.698;23.298;2022-07-21T09:23:14;2.83;;;2.60;;
6342;SDS011;3204;42.698;23.298;2022-07-21T09:25:42;2.80;;;2.60;;
6342;SDS011;3204;42.698;23.298;2022-07-21T09:30:59;3.70;;;3.30;;
6342;SDS011;3204;42.698;23.298;2022-07-21T09:33:27;2.95;;;2.80;;
6342;SDS011;3204;42.698;23.298;2022-07-21T09:38:34;3.10;;;2.90;;
6342;SDS011;3204;42.698;23.298;2022-07-21T09:41:15;3.58;;;2.80;;
6342;SDS011;3204;42.698;23.298;2022-07-21T09:43:46;3.10;;;2.90;;
6342;SDS011;3204;42.698;23.298;2022-07-21T09:46:17;3.40;;;3.20;;
6342;SDS011;3204;42.698;23.298;2022-07-21T09:48:54;3.72;;;2.90;;
6342;SDS011;3204;42.698;23.298;2022-07-21T09:56:33;2.85;;;2.65;;
6342;SDS011;3204;42.698;23.298;2022-07-21T09:59:01;4.18;;;2.70;;
6342;SDS011;3204;42.698;23.298;2022-07-21T10:01:29;4.95;;;2.83;;
6342;SDS011;3204;42.698;23.298;2022-07-21T10:03:55;2.58;;;2.38;;
6342;SDS011;3204;42.698;23.298;2022-07-21T10:06:29;2.92;;;2.72;;
6342;SDS011;3204;42.698;23.298;2022-07-21T10:09:00;2.55;;;2.45;;
6342;SDS011;3204;42.698;23.298;2022-07-21T10:11:29;3.13;;;2.92;;
6342;SDS011;3204;42.698;23.298;2022-07-21T10:13:55;2.90;;;2.67;;
6342;SDS011;3204;42.698;23.298;2022-07-21T10:16:21;2.50;;;2.30;;
6342;SDS011;3204;42.698;23.298;2022-07-21T10:22:12;2.78;;;2.60;;
6342;SDS011;3204;42.698;23.298;2022-07-21T10:24:47;2.88;;;2.63;;
6342;SDS011;3204;42.698;23.298;2022-07-21T10:27:16;3.53;;;2.70;;
6342;SDS011;3204;42.698;23.298;2022-07-21T10:32:17;3.83;;;2.47;;
6342;SDS011;3204;42.698;23.298;2022-07-21T10:34:44;2.53;;;2.40;;
6342;SDS011;3204;42.698;23.298;2022-07-21T10:37:10;4.28;;;3.15;;
6342;SDS011;3204;42.698;23.298;2022-07-21T10:39:36;7.75;;;3.15;;
6342;SDS011;3204;42.698;23.298;2022-07-21T10:42:15;17.02;;;4.10;;
6342;SDS011;3204;42.698;23.298;2022-07-21T10:44:45;2.80;;;2.60;;
6342;SDS011;3204;42.698;23.298;2022-07-21T10:57:41;4.70;;;2.75;;
6342;SDS011;3204;42.698;23.298;2022-07-21T11:02:46;2.90;;;2.80;;
6342;SDS011;3204;42.698;23.298;2022-07-21T11:05:14;2.80;;;2.70;;
6342;SDS011;3204;42.698;23.298;2022-07-21T11:10:47;2.80;;;2.60;;
6342;SDS011;3204;42.698;23.298;2022-07-21T11:13:16;3.00;;;2.70;;
6342;SDS011;3204;42.698;23.298;2022-07-21T11:18:19;2.92;;;2.72;;
6342;SDS011;3204;42.698;23.298;2022-07-21T11:21:07;8.27;;;3.17;;
6342;SDS011;3204;42.698;23.298;2022-07-21T11:23:47;2.67;;;2.53;;
6342;SDS011;3204;42.698;23.298;2022-07-21T11:26:14;4.10;;;2.78;;
6342;SDS011;3204;42.698;23.298;2022-07-21T11:28:44;5.25;;;2.97;;
6342;SDS011;3204;42.698;23.298;2022-07-21T11:33:41;3.60;;;2.97;;
6342;SDS011;3204;42.698;23.298;2022-07-21T11:36:08;2.85;;;2.65;;
6342;SDS011;3204;42.698;23.298;2022-07-21T11:38:34;3.17;;;2.72;;
6342;SDS011;3204;42.698;23.298;2022-07-21T11:41:16;4.53;;;3.00;;
6342;SDS011;3204;42.698;23.298;2022-07-21T11:43:43;3.00;;;2.90;;
6342;SDS011;3204;42.698;23.298;2022-07-21T11:46:09;3.53;;;3.35;;
6342;SDS011;3204;42.698;23.298;2022-07-21T11:48:35;4.03;;;2.85;;
6342;SDS011;3204;42.698;23.298;2022-07-21T11:51:01;2.97;;;2.88;;
6342;SDS011;3204;42.698;23.298;2022-07-21T11:53:27;3.47;;;3.03;;
6342;SDS011;3204;42.698;23.298;2022-07-21T11:55:52;3.00;;;2.90;;
6342;SDS011;3204;42.698;23.298;2022-07-21T11:58:19;3.78;;;2.83;;
6342;SDS011;3204;42.698;23.298;2022-07-21T12:00:45;3.85;;;3.08;;
6342;SDS011;3204;42.698;23.298;2022-07-21T12:03:13;3.67;;;3.47;;
6342;SDS011;3204;42.698;23.298;2022-07-21T12:05:40;3.78;;;3.42;;
6342;SDS011;3204;42.698;23.298;2022-07-21T12:08:06;3.50;;;3.28;;
6342;SDS011;3204;42.698;23.298;2022-07-21T12:10:32;3.28;;;3.08;;
6342;SDS011;3204;42.698;23.298;2022-07-21T12:13:01;3.33;;;3.13;;
6342;SDS011;3204;42.698;23.298;2022-07-21T12:15:30;5.90;;;3.58;;
6342;SDS011;3204;42.698;23.298;2022-07-21T12:18:02;3.65;;;3.45;;
6342;SDS011;3204;42.698;23.298;2022-07-21T12:20:32;3.83;;;3.55;;
6342;SDS011;3204;42.698;23.298;2022-07-21T12:23:01;3.95;;;3.10;;
6342;SDS011;3204;42.698;23.298;2022-07-21T12:25:35;3.20;;;3.00;;
6342;SDS011;3204;42.698;23.298;2022-07-21T12:28:02;3.35;;;3.05;;
6342;SDS011;3204;42.698;23.298;2022-07-21T12:30:33;3.47;;;3.03;;
6342;SDS011;3204;42.698;23.298;2022-07-21T12:33:07;3.90;;;3.05;;
6342;SDS011;3204;42.698;23.298;2022-07-21T12:35:36;3.20;;;3.00;;
6342;SDS011;3204;42.698;23.298;2022-07-21T12:38:07;4.88;;;2.90;;
6342;SDS011;3204;42.698;23.298;2022-07-21T12:40:39;3.92;;;2.70;;
6342;SDS011;3204;42.698;23.298;2022-07-21T12:48:13;5.20;;;3.10;;
6342;SDS011;3204;42.698;23.298;2022-07-21T12:50:41;3.53;;;3.22;;
6342;SDS011;3204;42.698;23.298;2022-07-21T12:53:10;3.05;;;2.85;;
6342;SDS011;3204;42.698;23.298;2022-07-21T12:55:36;2.90;;;2.80;;
6342;SDS011;3204;42.698;23.298;2022-07-21T12:58:03;4.35;;;2.78;;
6342;SDS011;3204;42.698;23.298;2022-07-21T13:00:28;3.10;;;2.60;;
6342;SDS011;3204;42.698;23.298;2022-07-21T13:02:55;3.22;;;2.65;;
6342;SDS011;3204;42.698;23.298;2022-07-21T13:05:22;6.63;;;2.97;;
6342;SDS011;3204;42.698;23.298;2022-07-21T13:07:48;2.80;;;2.60;;
6342;SDS011;3204;42.698;23.298;2022-07-21T13:10:14;4.75;;;2.70;;
6342;SDS011;3204;42.698;23.298;2022-07-21T13:12:41;3.17;;;2.70;;
6342;SDS011;3204;42.698;23.298;2022-07-21T13:15:06;5.97;;;2.92;;
6342;SDS011;3204;42.698;23.298;2022-07-21T13:17:32;3.45;;;3.20;;
6342;SDS011;3204;42.698;23.298;2022-07-21T13:19:57;10.63;;;3.03;;
6342;SDS011;3204;42.698;23.298;2022-07-21T13:22:23;3.35;;;2.97;;
6342;SDS011;3204;42.698;23.298;2022-07-21T13:24:49;3.22;;;3.05;;
6342;SDS011;3204;42.698;23.298;2022-07-21T13:27:14;3.30;;;2.72;;
6342;SDS011;3204;42.698;23.298;2022-07-21T13:29:40;2.90;;;2.70;;
6342;SDS011;3204;42.698;23.298;2022-07-21T13:32:06;3.78;;;3.00;;
6342;SDS011;3204;42.698;23.298;2022-07-21T13:34:32;3.75;;;2.97;;
6342;SDS011;3204;42.698;23.298;2022-07-21T13:36:59;3.78;;;3.15;;
6342;SDS011;3204;42.698;23.298;2022-07-21T13:39:24;3.10;;;2.80;;
6342;SDS011;3204;42.698;23.298;2022-07-21T13:41:52;3.08;;;2.88;;
6342;SDS011;3204;42.698;23.298;2022-07-21T13:44:18;3.80;;;3.25;;
6342;SDS011;3204;42.698;23.298;2022-07-21T13:46:44;3.00;;;2.80;;
6342;SDS011;3204;42.698;23.298;2022-07-21T13:49:10;4.07;;;2.80;;
6342;SDS011;3204;42.698;23.298;2022-07-21T13:51:35;7.55;;;2.80;;
6342;SDS011;3204;42.698;23.298;2022-07-21T13:54:01;4.28;;;2.95;;
6342;SDS011;3204;42.698;23.298;2022-07-21T13:56:26;6.38;;;2.92;;
6342;SDS011;3204;42.698;23.298;2022-07-21T13:58:52;2.30;;;2.20;;
6342;SDS011;3204;42.698;23.298;2022-07-21T14:01:18;3.22;;;2.60;;
6342;SDS011;3204;42.698;23.298;2022-07-21T14:03:44;2.70;;;2.40;;
6342;SDS011;3204;42.698;23.298;2022-07-21T14:06:11;4.32;;;2.55;;
6342;SDS011;3204;42.698;23.298;2022-07-21T14:08:37;8.98;;;2.90;;
6342;SDS011;3204;42.698;23.298;2022-07-21T14:11:03;3.85;;;2.90;;
6342;SDS011;3204;42.698;23.298;2022-07-21T14:13:31;2.67;;;2.58;;
6342;SDS011;3204;42.698;23.298;2022-07-21T14:15:56;2.90;;;2.70;;
6342;SDS011;3204;42.698;23.298;2022-07-21T14:18:22;3.38;;;2.88;;
6342;SDS011;3204;42.698;23.298;2022-07-21T14:20:48;7.18;;;3.42;;
6342;SDS011;3204;42.698;23.298;2022-07-21T14:23:17;3.78;;;2.58;;
6342;SDS011;3204;42.698;23.298;2022-07-21T14:25:43;7.45;;;3.03;;
6342;SDS011;3204;42.698;23.298;2022-07-21T14:28:09;3.97;;;3.08;;
6342;SDS011;3204;42.698;23.298;2022-07-21T14:30:34;2.97;;;2.75;;
6342;SDS011;3204;42.698;23.298;2022-07-21T14:32:59;5.63;;;3.03;;
6342;SDS011;3204;42.698;23.298;2022-07-21T14:35:25;5.50;;;2.65;;
6342;SDS011;3204;42.698;23.298;2022-07-21T14:37:52;3.50;;;2.78;;
6342;SDS011;3204;42.698;23.298;2022-07-21T14:40:19;7.07;;;2.78;;
6342;SDS011;3204;42.698;23.298;2022-07-21T14:42:45;8.07;;;2.75;;
6342;SDS011;3204;42.698;23.298;2022-07-21T14:45:12;4.72;;;3.10;;
6342;SDS011;3204;42.698;23.298;2022-07-21T14:47:39;3.13;;;2.63;;
6342;SDS011;3204;42.698;23.298;2022-07-21T14:50:05;6.97;;;2.97;;
6342;SDS011;3204;42.698;23.298;2022-07-21T14:52:31;3.10;;;2.70;;
6342;SDS011;3204;42.698;23.298;2022-07-21T14:54:56;3.20;;;3.00;;
6342;SDS011;3204;42.698;23.298;2022-07-21T14:57:22;3.53;;;3.33;;
6342;SDS011;3204;42.698;23.298;2022-07-21T14:59:47;4.55;;;2.75;;
6342;SDS011;3204;42.698;23.298;2022-07-21T15:02:13;6.53;;;3.05;;
6342;SDS011;3204;42.698;23.298;2022-07-21T15:04:38;3.92;;;2.72;;
6342;SDS011;3204;42.698;23.298;2022-07-21T15:07:04;3.10;;;2.90;;
6342;SDS011;3204;42.698;23.298;2022-07-21T15:09:30;3.72;;;3.08;;
6342;SDS011;3204;42.698;23.298;2022-07-21T15:11:55;5.45;;;3.00;;
6342;SDS011;3204;42.698;23.298;2022-07-21T15:14:21;5.55;;;2.75;;
6342;SDS011;3204;42.698;23.298;2022-07-21T15:16:46;3.47;;;2.70;;
6342;SDS011;3204;42.698;23.298;2022-07-21T15:19:12;5.78;;;3.00;;
6342;SDS011;3204;42.698;23.298;2022-07-21T15:21:38;3.70;;;2.72;;
6342;SDS011;3204;42.698;23.298;2022-07-21T15:24:03;3.83;;;3.13;;
6342;SDS011;3204;42.698;23.298;2022-07-21T15:26:29;2.85;;;2.75;;
6342;SDS011;3204;42.698;23.298;2022-07-21T15:28:55;4.47;;;2.67;;
6342;SDS011;3204;42.698;23.298;2022-07-21T15:31:23;4.32;;;2.70;;
6342;SDS011;3204;42.698;23.298;2022-07-21T15:33:48;5.78;;;3.08;;
6342;SDS011;3204;42.698;23.298;2022-07-21T15:36:14;3.45;;;2.97;;
6342;SDS011;3204;42.698;23.298;2022-07-21T15:38:40;3.00;;;2.70;;
6342;SDS011;3204;42.698;23.298;2022-07-21T15:41:05;3.25;;;3.10;;